Alread, Arkansas
Current Conditions -  °F | °C
As of 1:35 PM on Thursday 27 Nov 2014 (Local Time) from KCCA Reporting Station
Clear Clear  
Wind Chill:   Ceiling: Unl
Heat Index:   Visibility: 8mi
Dew Point: -4°   Wind: 0mph
Humidity: 40%   Direction: NA
Pressure: 30.48"   Gusts: NA
Location:  35.6269°N, 92.5508°W
Report Text: KCCA 271935Z AUTO 00000KT 8SM CLR 09/M04 A3048 RMK AO2
Loading
Personal Weather Stations






























Interactive Weather Map New forecast layout! Learn more

10-Day Weather Forecast

Advertisements
Track Severe Weather on mobile